createdAt,value
2017-11-27T00:00:09.725Z,5.00
2017-11-27T00:02:38.843Z,5.06
2017-11-27T00:05:07.193Z,5.01
2017-11-27T00:07:35.532Z,5.05
2017-11-27T00:10:03.925Z,5.05
2017-11-27T00:12:33.049Z,5.04
2017-11-27T00:15:02.545Z,5.08
2017-11-27T00:17:32.001Z,5.08
2017-11-27T00:20:00.364Z,5.03
2017-11-27T00:22:41.106Z,5.05
2017-11-27T00:25:09.862Z,5.11
2017-11-27T00:27:38.186Z,5.06
2017-11-27T00:30:06.578Z,5.07
2017-11-27T00:32:34.914Z,5.06
2017-11-27T00:35:03.241Z,5.07
2017-11-27T00:37:31.603Z,5.04
2017-11-27T00:39:59.953Z,5.04
2017-11-27T00:42:29.042Z,5.07
2017-11-27T00:44:58.520Z,5.10
2017-11-27T00:47:26.889Z,5.17
2017-11-27T00:49:55.607Z,5.23
2017-11-27T00:52:24.710Z,5.16
2017-11-27T00:54:53.457Z,5.18
2017-11-27T00:57:21.769Z,5.19
2017-11-27T00:59:50.082Z,5.14
2017-11-27T01:02:19.585Z,5.15
2017-11-27T01:04:47.901Z,5.10
2017-11-27T01:07:16.356Z,5.12
2017-11-27T01:09:44.689Z,5.13
2017-11-27T01:12:13.784Z,5.13
2017-11-27T01:14:42.900Z,5.16
2017-11-27T01:17:11.993Z,5.19
2017-11-27T01:19:41.693Z,5.14
2017-11-27T01:22:10.804Z,5.14
2017-11-27T01:24:40.265Z,5.13
2017-11-27T01:27:08.598Z,5.10
2017-11-27T01:29:36.896Z,5.06
2017-11-27T01:32:05.268Z,5.05
2017-11-27T01:34:33.592Z,5.13
2017-11-27T01:37:03.481Z,5.21
2017-11-27T01:39:31.800Z,5.21
2017-11-27T01:42:00.159Z,5.27
2017-11-27T01:44:28.865Z,5.33
2017-11-27T01:46:57.192Z,5.34
2017-11-27T01:49:25.556Z,5.31
2017-11-27T01:51:53.894Z,5.25
2017-11-27T01:54:22.248Z,5.33
2017-11-27T01:56:51.317Z,5.34
2017-11-27T01:59:19.664Z,5.28
2017-11-27T02:01:48.244Z,5.22
2017-11-27T02:04:20.030Z,5.27
2017-11-27T02:06:48.361Z,5.25
2017-11-27T02:09:16.668Z,5.26
2017-11-27T02:11:45.417Z,5.26
2017-11-27T02:14:14.491Z,5.27
2017-11-27T02:16:42.838Z,5.22
2017-11-27T02:19:11.181Z,5.23
2017-11-27T02:21:39.528Z,5.12
2017-11-27T02:24:08.625Z,5.10
2017-11-27T02:26:37.756Z,5.12
2017-11-27T02:29:06.069Z,5.10
2017-11-27T02:31:34.453Z,5.07
2017-11-27T02:34:02.785Z,5.04
2017-11-27T02:36:31.130Z,5.07
2017-11-27T02:39:00.354Z,5.07
2017-11-27T02:41:29.450Z,5.08
2017-11-27T02:43:57.827Z,5.07
2017-11-27T02:46:26.532Z,5.04
2017-11-27T02:48:54.843Z,5.06
2017-11-27T02:51:23.215Z,5.06
2017-11-27T02:53:51.541Z,5.03
2017-11-27T02:56:19.888Z,5.03
2017-11-27T02:58:48.204Z,5.04
2017-11-27T03:01:16.563Z,5.02
2017-11-27T03:03:44.876Z,5.05
2017-11-27T03:06:13.226Z,4.99
2017-11-27T03:08:41.576Z,4.97
2017-11-27T03:11:10.687Z,5.09
2017-11-27T03:13:39.047Z,5.13
2017-11-27T03:16:07.399Z,5.15
2017-11-27T03:18:35.752Z,5.15
2017-11-27T03:21:05.250Z,5.23
2017-11-27T03:23:34.731Z,5.23
2017-11-27T03:26:03.809Z,5.15
2017-11-27T03:28:32.544Z,5.17
2017-11-27T03:31:00.892Z,5.09
2017-11-27T03:33:30.020Z,5.10
2017-11-27T03:35:58.338Z,5.08
2017-11-27T03:38:27.044Z,5.10
2017-11-27T03:40:56.179Z,5.10
2017-11-27T03:43:24.511Z,5.05
2017-11-27T03:45:53.968Z,5.00
2017-11-27T03:48:22.315Z,4.98
2017-11-27T03:50:50.658Z,4.88
2017-11-27T03:53:19.776Z,4.69
2017-11-27T03:55:48.099Z,4.52
2017-11-27T03:58:16.459Z,4.35
2017-11-27T04:00:44.841Z,4.17
2017-11-27T04:03:13.247Z,4.03
2017-11-27T04:05:41.569Z,3.91
2017-11-27T04:08:09.937Z,3.85
2017-11-27T04:10:39.031Z,3.93
2017-11-27T04:13:07.395Z,3.89
2017-11-27T04:15:37.247Z,3.79
2017-11-27T04:18:05.967Z,3.78
2017-11-27T04:20:34.330Z,3.90
2017-11-27T04:23:03.411Z,4.12
2017-11-27T04:25:32.273Z,4.23
2017-11-27T04:28:00.592Z,4.28
2017-11-27T04:30:29.720Z,4.32
2017-11-27T04:32:58.286Z,4.35
2017-11-27T04:35:29.119Z,4.34
2017-11-27T04:37:57.601Z,4.26
2017-11-27T04:40:25.914Z,4.14
2017-11-27T04:42:55.028Z,3.93
2017-11-27T04:45:23.346Z,3.77
2017-11-27T04:47:51.699Z,3.62
2017-11-27T04:50:20.775Z,3.55
2017-11-27T04:52:49.127Z,3.49
2017-11-27T04:55:19.006Z,3.56
2017-11-27T04:57:47.339Z,3.65
2017-11-27T05:00:16.067Z,3.73
2017-11-27T05:02:44.576Z,3.76
2017-11-27T05:05:13.424Z,3.90
2017-11-27T05:07:41.765Z,3.88
2017-11-27T05:10:10.116Z,3.95
2017-11-27T05:12:38.422Z,4.02
2017-11-27T05:15:07.551Z,4.03
2017-11-27T05:17:36.292Z,3.92
2017-11-27T05:20:05.371Z,3.64
2017-11-27T05:22:34.489Z,3.41
2017-11-27T05:25:02.806Z,3.25
2017-11-27T05:27:31.159Z,3.15
2017-11-27T05:29:59.515Z,3.07
2017-11-27T05:32:28.639Z,3.10
2017-11-27T05:34:56.982Z,3.01
2017-11-27T05:37:26.696Z,2.81
2017-11-27T05:39:55.790Z,2.91
2017-11-27T05:42:24.874Z,2.79
2017-11-27T05:44:53.222Z,2.72
2017-11-27T05:47:21.575Z,2.75
2017-11-27T05:49:50.292Z,2.72
2017-11-27T05:52:19.424Z,2.79
2017-11-27T05:54:48.543Z,2.92
2017-11-27T05:57:16.871Z,3.19
2017-11-27T05:59:45.246Z,3.33
2017-11-27T06:02:14.331Z,3.46
2017-11-27T06:04:42.655Z,3.50
2017-11-27T06:07:12.358Z,3.55
2017-11-27T06:09:41.446Z,3.58
2017-11-27T06:12:09.790Z,3.59
2017-11-27T06:14:38.146Z,3.69
2017-11-27T06:17:07.601Z,3.75
2017-11-27T06:19:35.910Z,3.77
2017-11-27T06:22:04.274Z,3.82
2017-11-27T06:24:34.002Z,3.86
2017-11-27T06:27:02.338Z,3.93
2017-11-27T06:29:31.079Z,3.99
2017-11-27T06:31:59.425Z,4.05
2017-11-27T06:34:29.277Z,4.09
2017-11-27T06:36:57.619Z,4.14
2017-11-27T06:39:25.963Z,4.15
2017-11-27T06:41:55.098Z,4.17
2017-11-27T06:44:23.423Z,4.16
2017-11-27T06:46:52.511Z,4.22
2017-11-27T06:49:20.854Z,4.25
2017-11-27T06:51:49.193Z,4.29
2017-11-27T06:54:17.557Z,4.29
2017-11-27T06:56:45.901Z,4.26
2017-11-27T06:59:14.255Z,4.17
2017-11-27T07:01:42.590Z,3.98
2017-11-27T07:04:10.942Z,3.82
2017-11-27T07:06:40.039Z,3.68
2017-11-27T07:09:08.394Z,3.56
2017-11-27T07:11:36.732Z,3.51
2017-11-27T07:14:05.823Z,3.48
2017-11-27T07:16:34.161Z,3.47
2017-11-27T07:19:02.506Z,3.45
2017-11-27T07:21:31.239Z,3.48
2017-11-27T07:24:00.367Z,3.48
2017-11-27T07:26:28.685Z,3.45
2017-11-27T07:28:57.473Z,3.44
2017-11-27T07:31:26.570Z,3.47
2017-11-27T07:33:56.074Z,3.49
2017-11-27T07:36:24.433Z,3.50
2017-11-27T07:38:58.962Z,3.54
2017-11-27T07:41:28.193Z,3.53
2017-11-27T07:43:56.510Z,3.56
2017-11-27T07:46:25.645Z,3.65
2017-11-27T07:48:54.109Z,3.66
2017-11-27T07:51:22.465Z,3.67
2017-11-27T07:53:51.202Z,3.71
2017-11-27T07:56:19.561Z,3.71
2017-11-27T07:58:47.897Z,3.72
2017-11-27T08:01:16.245Z,3.76
2017-11-27T08:03:44.609Z,3.79
2017-11-27T08:06:12.940Z,3.81
2017-11-27T08:08:42.062Z,3.82
2017-11-27T08:11:10.405Z,3.82
2017-11-27T08:13:39.530Z,3.90
2017-11-27T08:16:07.897Z,3.93
2017-11-27T08:18:37.011Z,3.98
2017-11-27T08:21:05.345Z,4.03
2017-11-27T08:23:33.694Z,4.06
2017-11-27T08:26:02.022Z,4.04
2017-11-27T08:28:30.370Z,4.08
2017-11-27T08:30:58.709Z,4.09
2017-11-27T08:33:28.253Z,4.12
2017-11-27T08:35:56.600Z,4.17
2017-11-27T08:38:25.725Z,4.18
2017-11-27T08:40:54.049Z,4.25
2017-11-27T08:43:22.421Z,4.30
2017-11-27T08:45:50.788Z,4.33
2017-11-27T08:48:19.169Z,4.38
2017-11-27T08:50:47.926Z,4.41
2017-11-27T08:53:16.241Z,4.45
2017-11-27T08:55:44.592Z,4.47
2017-11-27T08:58:13.381Z,4.51
2017-11-27T09:00:41.741Z,4.50
2017-11-27T09:03:10.100Z,4.55
2017-11-27T09:05:38.485Z,4.57
2017-11-27T09:08:07.217Z,4.64
2017-11-27T09:10:36.345Z,4.69
2017-11-27T09:13:04.702Z,4.72
2017-11-27T09:15:33.061Z,4.77
2017-11-27T09:18:02.145Z,4.79
2017-11-27T09:20:31.317Z,4.85
2017-11-27T09:22:59.681Z,4.88
2017-11-27T09:25:28.020Z,4.91
2017-11-27T09:27:57.157Z,4.94
2017-11-27T09:30:25.482Z,5.01
2017-11-27T09:32:53.808Z,5.08
2017-11-27T09:35:22.571Z,5.12
2017-11-27T09:37:50.904Z,5.10
2017-11-27T09:40:19.288Z,5.13
2017-11-27T09:42:47.604Z,5.15
2017-11-27T09:45:15.933Z,5.25
2017-11-27T09:47:44.265Z,5.26
2017-11-27T09:50:13.363Z,5.33
2017-11-27T09:52:42.494Z,5.36
2017-11-27T09:55:11.708Z,5.41
2017-11-27T09:57:40.016Z,5.46
2017-11-27T10:00:08.384Z,5.48
2017-11-27T10:02:37.512Z,5.50
2017-11-27T10:05:05.844Z,5.56
2017-11-27T10:07:34.961Z,5.64
2017-11-27T10:10:03.300Z,5.68
2017-11-27T10:12:33.181Z,5.74
2017-11-27T10:15:02.349Z,5.68
2017-11-27T10:17:30.728Z,5.67
2017-11-27T10:20:00.555Z,5.75
2017-11-27T10:22:30.055Z,5.77
2017-11-27T10:24:59.563Z,5.73
2017-11-27T10:27:27.876Z,5.82
2017-11-27T10:29:57.748Z,5.85
2017-11-27T10:32:26.083Z,5.93
2017-11-27T10:34:55.753Z,6.01
2017-11-27T10:37:26.343Z,6.07
2017-11-27T10:39:56.057Z,6.13
2017-11-27T10:42:25.904Z,6.02
2017-11-27T10:44:54.286Z,5.90
2017-11-27T10:47:23.415Z,5.96
2017-11-27T10:49:51.748Z,5.97
2017-11-27T10:52:20.124Z,6.03
2017-11-27T10:54:48.488Z,6.08
2017-11-27T10:57:17.211Z,6.13
2017-11-27T10:59:45.525Z,6.12
2017-11-27T11:02:13.861Z,6.29
2017-11-27T11:04:42.238Z,6.35
2017-11-27T11:07:10.564Z,6.34
2017-11-27T11:09:39.655Z,6.50
2017-11-27T11:12:09.176Z,6.63
2017-11-27T11:14:38.263Z,6.73
2017-11-27T11:17:07.376Z,6.83
2017-11-27T11:19:36.116Z,6.71
2017-11-27T11:22:05.584Z,6.60
2017-11-27T11:24:34.716Z,6.75
2017-11-27T11:27:03.079Z,6.88
2017-11-27T11:29:31.443Z,7.13
2017-11-27T11:32:00.531Z,7.28
2017-11-27T11:34:29.657Z,7.38
2017-11-27T11:36:57.969Z,7.39
2017-11-27T11:39:27.049Z,7.76
2017-11-27T11:41:56.164Z,7.90
2017-11-27T11:44:25.852Z,7.72
2017-11-27T11:46:54.211Z,7.78
2017-11-27T11:49:22.554Z,7.62
2017-11-27T11:51:50.927Z,7.70
2017-11-27T11:54:19.240Z,7.94
2017-11-27T11:56:47.575Z,7.99
2017-11-27T11:59:15.952Z,7.82
2017-11-27T12:01:45.655Z,7.64
2017-11-27T12:04:14.084Z,7.40
2017-11-27T12:06:42.444Z,7.16
2017-11-27T12:09:10.772Z,7.26
2017-11-27T12:11:39.892Z,7.47
2017-11-27T12:14:09.709Z,7.54
2017-11-27T12:16:38.455Z,7.71
2017-11-27T12:19:07.719Z,7.69
2017-11-27T12:21:36.492Z,7.73
2017-11-27T12:24:04.835Z,7.73
2017-11-27T12:26:33.959Z,7.80
2017-11-27T12:29:03.459Z,7.97
2017-11-27T12:31:32.572Z,7.72
2017-11-27T12:34:01.668Z,7.48
2017-11-27T12:36:30.000Z,7.44
2017-11-27T12:38:58.772Z,7.32
2017-11-27T12:41:27.894Z,7.28
2017-11-27T12:43:56.643Z,7.38
2017-11-27T12:46:24.959Z,7.50
2017-11-27T12:48:53.289Z,7.40
2017-11-27T12:51:21.644Z,7.25
2017-11-27T12:53:50.352Z,7.25
2017-11-27T12:56:18.708Z,7.12
2017-11-27T12:58:48.375Z,7.20
2017-11-27T13:01:18.219Z,7.16
2017-11-27T13:03:46.537Z,7.09
2017-11-27T13:06:14.905Z,7.13
2017-11-27T13:08:43.235Z,7.22
2017-11-27T13:11:11.559Z,7.23
2017-11-27T13:13:39.914Z,7.28
2017-11-27T13:16:08.251Z,7.39
2017-11-27T13:18:37.360Z,7.49
2017-11-27T13:21:05.712Z,7.64
2017-11-27T13:23:34.795Z,7.73
2017-11-27T13:26:03.144Z,7.58
2017-11-27T13:28:31.507Z,7.32
2017-11-27T13:31:00.240Z,7.42
2017-11-27T13:33:28.989Z,7.26
2017-11-27T13:35:57.710Z,7.24
2017-11-27T13:38:27.191Z,7.32
2017-11-27T13:40:55.510Z,7.25
2017-11-27T13:43:24.631Z,7.26
2017-11-27T13:45:52.944Z,7.10
2017-11-27T13:48:21.304Z,7.04
2017-11-27T13:50:49.624Z,7.00
2017-11-27T13:53:18.755Z,6.89
2017-11-27T13:55:47.068Z,7.01
2017-11-27T13:58:15.442Z,7.01
2017-11-27T14:00:43.788Z,6.94
2017-11-27T14:03:12.918Z,6.87
2017-11-27T14:05:41.635Z,6.78
2017-11-27T14:08:10.392Z,6.77
2017-11-27T14:10:38.722Z,6.81
2017-11-27T14:13:07.843Z,6.75
2017-11-27T14:15:36.202Z,6.64
2017-11-27T14:18:04.952Z,6.61
2017-11-27T14:20:33.296Z,6.53
2017-11-27T14:23:02.826Z,6.47
2017-11-27T14:25:31.915Z,6.40
2017-11-27T14:28:00.249Z,6.33
2017-11-27T14:30:28.605Z,6.31
2017-11-27T14:32:57.327Z,6.23
2017-11-27T14:35:26.471Z,6.22
2017-11-27T14:37:54.811Z,6.20
2017-11-27T14:40:23.214Z,6.19
2017-11-27T14:42:52.303Z,6.13
2017-11-27T14:45:20.633Z,6.05
2017-11-27T14:47:49.000Z,5.97
2017-11-27T14:50:17.343Z,5.92
2017-11-27T14:52:45.704Z,5.91
2017-11-27T14:55:14.039Z,5.93
2017-11-27T14:57:43.183Z,5.88
2017-11-27T15:00:11.915Z,5.87
2017-11-27T15:02:41.001Z,5.85
2017-11-27T15:05:09.759Z,5.94
2017-11-27T15:07:38.112Z,6.02
2017-11-27T15:10:07.605Z,6.07
2017-11-27T15:12:35.946Z,6.10
2017-11-27T15:15:05.086Z,6.16
2017-11-27T15:17:33.440Z,6.22
2017-11-27T15:20:01.780Z,6.23
2017-11-27T15:22:30.544Z,6.24
2017-11-27T15:24:59.699Z,6.30
2017-11-27T15:27:28.071Z,6.29
2017-11-27T15:29:57.539Z,6.33
2017-11-27T15:32:25.935Z,6.37
2017-11-27T15:34:54.277Z,6.31
2017-11-27T15:37:23.439Z,6.32
2017-11-27T15:39:51.821Z,6.36
2017-11-27T15:42:20.144Z,6.31
2017-11-27T15:44:48.907Z,6.23
2017-11-27T15:47:17.261Z,6.25
2017-11-27T15:49:45.635Z,6.25
2017-11-27T15:52:14.025Z,6.08
2017-11-27T15:54:43.538Z,5.95
2017-11-27T15:57:13.385Z,5.90
2017-11-27T15:59:41.756Z,5.94
2017-11-27T16:02:10.863Z,5.96
2017-11-27T16:04:39.210Z,5.82
2017-11-27T16:07:08.674Z,5.81
2017-11-27T16:09:37.054Z,5.73
2017-11-27T16:12:05.470Z,5.76
2017-11-27T16:14:33.808Z,5.56
2017-11-27T16:17:02.150Z,5.62
2017-11-27T16:19:30.916Z,5.58
2017-11-27T16:21:59.285Z,5.55
2017-11-27T16:24:28.765Z,5.48
2017-11-27T16:26:58.262Z,5.55
2017-11-27T16:29:26.669Z,5.59
2017-11-27T16:31:55.130Z,5.54
2017-11-27T16:34:24.626Z,5.48
2017-11-27T16:36:54.095Z,5.53
2017-11-27T16:39:22.446Z,5.53
2017-11-27T16:41:50.850Z,5.46
2017-11-27T16:44:20.714Z,5.52
2017-11-27T16:46:49.625Z,5.43
2017-11-27T16:49:19.194Z,5.38
2017-11-27T16:51:48.908Z,5.24
2017-11-27T16:54:17.234Z,5.11
2017-11-27T16:56:45.610Z,5.15
2017-11-27T16:59:13.973Z,5.12
2017-11-27T17:01:42.333Z,5.01
2017-11-27T17:04:10.709Z,5.19
2017-11-27T17:06:39.570Z,5.03
2017-11-27T17:09:08.340Z,4.96
2017-11-27T17:11:38.006Z,5.02
2017-11-27T17:14:06.389Z,4.92
2017-11-27T17:16:34.739Z,4.93
2017-11-27T17:19:03.097Z,4.83
2017-11-27T17:21:32.202Z,4.76
2017-11-27T17:24:01.074Z,4.71
2017-11-27T17:26:29.449Z,4.73
2017-11-27T17:28:58.574Z,4.66
2017-11-27T17:31:26.962Z,4.70
2017-11-27T17:33:56.094Z,4.54
2017-11-27T17:36:24.424Z,5.01
2017-11-27T17:38:52.753Z,6.57
2017-11-27T17:41:21.530Z,6.15
2017-11-27T17:43:49.937Z,5.83
2017-11-27T17:46:18.281Z,5.49
2017-11-27T17:48:46.624Z,5.32
2017-11-27T17:51:16.109Z,5.13
2017-11-27T17:53:45.214Z,4.92
2017-11-27T17:56:14.009Z,4.93
2017-11-27T17:58:43.166Z,4.96
2017-11-27T18:01:11.493Z,4.96
2017-11-27T18:03:39.924Z,4.80
2017-11-27T18:06:08.289Z,4.74
2017-11-27T18:08:37.817Z,4.70
2017-11-27T18:11:06.953Z,4.76
2017-11-27T18:13:35.288Z,4.83
2017-11-27T18:16:03.733Z,4.84
2017-11-27T18:18:32.075Z,4.87
2017-11-27T18:21:00.416Z,4.90
2017-11-27T18:23:29.196Z,4.83
2017-11-27T18:25:57.929Z,4.94
2017-11-27T18:28:26.345Z,4.86
2017-11-27T18:30:54.754Z,4.87
2017-11-27T18:33:24.208Z,4.89
2017-11-27T18:35:52.555Z,4.81
2017-11-27T18:38:22.238Z,4.89
2017-11-27T18:40:50.660Z,4.89
2017-11-27T18:43:20.353Z,4.86
2017-11-27T18:45:49.161Z,4.83
2017-11-27T18:48:17.578Z,4.76
2017-11-27T18:50:45.917Z,4.74
2017-11-27T18:53:14.690Z,4.87
2017-11-27T18:55:43.434Z,4.90
2017-11-27T18:58:11.821Z,4.89
2017-11-27T19:00:40.629Z,4.99
2017-11-27T19:03:10.339Z,4.99
2017-11-27T19:05:39.458Z,4.90
2017-11-27T19:08:08.350Z,4.91
2017-11-27T19:10:36.823Z,4.87
2017-11-27T19:13:06.098Z,4.87
2017-11-27T19:15:34.947Z,4.91
2017-11-27T19:18:04.109Z,5.04
2017-11-27T19:20:32.441Z,5.13
2017-11-27T19:23:01.761Z,5.09
2017-11-27T19:25:30.107Z,5.07
2017-11-27T19:27:59.252Z,5.08
2017-11-27T19:30:31.806Z,4.97
2017-11-27T19:33:01.674Z,4.98
2017-11-27T19:35:31.104Z,5.05
2017-11-27T19:38:01.197Z,5.01
2017-11-27T19:40:30.401Z,5.10
2017-11-27T19:43:00.104Z,5.11
2017-11-27T19:45:28.496Z,5.04
2017-11-27T19:47:57.884Z,5.05
2017-11-27T19:50:26.293Z,5.04
2017-11-27T19:52:56.366Z,5.07
2017-11-27T19:55:26.070Z,5.10
2017-11-27T19:57:54.496Z,5.14
2017-11-27T20:00:25.832Z,5.15
2017-11-27T20:02:55.006Z,5.13
2017-11-27T20:05:26.339Z,5.25
2017-11-27T20:07:55.312Z,5.23
2017-11-27T20:10:24.480Z,5.26
2017-11-27T20:12:54.328Z,5.27
2017-11-27T20:15:23.929Z,5.18
2017-11-27T20:17:53.119Z,5.30
2017-11-27T20:20:21.478Z,5.23
2017-11-27T20:22:49.838Z,5.23
2017-11-27T20:25:18.198Z,5.10
2017-11-27T20:27:46.584Z,5.24
2017-11-27T20:30:14.957Z,5.23
2017-11-27T20:32:44.247Z,5.12
2017-11-27T20:35:13.382Z,5.16
2017-11-27T20:37:41.783Z,5.22
2017-11-27T20:40:12.228Z,5.29
2017-11-27T20:42:42.662Z,5.22
2017-11-27T20:45:11.548Z,5.28
2017-11-27T20:47:40.233Z,5.24
2017-11-27T20:50:10.927Z,5.26
2017-11-27T20:52:40.408Z,5.32
2017-11-27T20:55:10.891Z,5.36
2017-11-27T20:57:39.756Z,5.36
2017-11-27T21:00:11.324Z,5.38
2017-11-27T21:02:40.636Z,5.25
2017-11-27T21:05:09.835Z,5.28
2017-11-27T21:07:38.305Z,5.26
2017-11-27T21:10:09.301Z,5.33
2017-11-27T21:12:38.900Z,5.29
2017-11-27T21:15:07.358Z,5.35
2017-11-27T21:17:35.936Z,5.32
2017-11-27T21:20:04.304Z,5.32
2017-11-27T21:22:32.779Z,5.36
2017-11-27T21:25:02.527Z,5.44
2017-11-27T21:27:30.863Z,5.40
2017-11-27T21:30:02.107Z,5.49
2017-11-27T21:32:31.587Z,5.39
2017-11-27T21:35:00.343Z,5.45
2017-11-27T21:37:28.737Z,5.47
2017-11-27T21:39:58.434Z,5.50
2017-11-27T21:42:26.828Z,5.49
2017-11-27T21:44:56.797Z,5.44
2017-11-27T21:47:25.170Z,5.44
2017-11-27T21:49:53.567Z,5.41
2017-11-27T21:52:21.911Z,5.51
2017-11-27T21:54:51.947Z,5.47
2017-11-27T21:57:20.317Z,5.49
2017-11-27T21:59:50.225Z,5.58
2017-11-27T22:02:19.376Z,5.61
2017-11-27T22:04:48.267Z,5.60
2017-11-27T22:07:16.633Z,5.51
2017-11-27T22:09:45.758Z,5.50
2017-11-27T22:12:15.067Z,5.52
2017-11-27T22:14:45.003Z,5.60
2017-11-27T22:17:13.366Z,5.49
2017-11-27T22:19:42.312Z,5.49
2017-11-27T22:22:10.653Z,5.55
2017-11-27T22:24:39.746Z,5.59
2017-11-27T22:27:09.252Z,5.62
2017-11-27T22:29:38.955Z,5.59
2017-11-27T22:32:08.638Z,5.63
2017-11-27T22:34:36.998Z,5.61
2017-11-27T22:37:05.339Z,5.66
2017-11-27T22:39:33.723Z,5.74
2017-11-27T22:42:03.058Z,5.81
2017-11-27T22:44:31.503Z,5.84
2017-11-27T22:46:59.878Z,5.79
2017-11-27T22:49:28.208Z,5.72
2017-11-27T22:51:56.728Z,5.72
2017-11-27T22:54:26.190Z,5.68
2017-11-27T22:56:54.526Z,5.72
2017-11-27T22:59:22.910Z,5.75
2017-11-27T23:01:51.281Z,5.78
2017-11-27T23:04:19.651Z,5.89
2017-11-27T23:06:48.011Z,5.79
2017-11-27T23:09:17.146Z,5.80
2017-11-27T23:11:46.325Z,5.79
2017-11-27T23:14:14.698Z,5.83
2017-11-27T23:16:43.008Z,5.85
2017-11-27T23:19:11.406Z,5.83
2017-11-27T23:21:39.747Z,5.75
2017-11-27T23:24:09.639Z,5.74
2017-11-27T23:26:38.366Z,5.77
2017-11-27T23:29:06.711Z,5.87
2017-11-27T23:31:35.131Z,5.83
2017-11-27T23:34:03.473Z,5.88
2017-11-27T23:36:32.766Z,5.88
2017-11-27T23:39:01.126Z,5.88
2017-11-27T23:41:29.465Z,5.86
2017-11-27T23:43:57.814Z,5.89
2017-11-27T23:46:26.530Z,5.91
2017-11-27T23:48:55.303Z,5.97
2017-11-27T23:51:24.015Z,5.99
2017-11-27T23:53:52.729Z,6.00
2017-11-27T23:56:21.077Z,5.96
2017-11-27T23:58:49.454Z,5.97
